Kiyotaki — JG5653 — position and weather

sailwx.info

Track history (hours):
 
Tides and Currents Weather Stations Pressure Air Temp Water Temp Dewpoint Dewpoint Depression Visibility Wind Speed Wind Dir Waves Ship Positions

Kiyotaki

Last reported at 2018-Jun-24 20:29 UTC. Time now 2018-Jun-24 20:36 UTC.
Position N 35°18' E 139°43'.

Length 36 m.

Type: Tug. MMSI: 431100981.

Date/timePositionNaut miles runAvg speedWind from/ knotsBaromVisibWave heightAir tempDewpointWater temp
2018-Jun-24 20:29N 35°18' E 139°43'0 0.0
2018-Jun-24 06:14N 35°18' E 139°43'0 0.3
2018-Jun-24 05:45N 35°18' E 139°43'1 0.2
2018-Jun-24 02:21N 35°18' E 139°42'2 0.1
2018-Jun-23 09:02N 35°17' E 139°41'113.3
2018-Jun-23 08:59N 35°17' E 139°41'1 2.4
2018-Jun-23 08:28N 35°18' E 139°43'0 0.1
2018-Jun-23 01:52N 35°18' E 139°43'2 1.2
2018-Jun-23 00:24N 35°17' E 139°41'2 0.8
2018-Jun-22 21:40N 35°18' E 139°43'1 1.7
2018-Jun-22 21:17N 35°18' E 139°43'0 0.5
2018-Jun-22 20:56N 35°18' E 139°43'1 0.0
2018-Jun-22 06:13N 35°17' E 139°43'0 0.1
2018-Jun-22 03:31N 35°18' E 139°43'0 0.3
2018-Jun-22 02:37N 35°18' E 139°43'1 0.6
2018-Jun-22 00:59N 35°18' E 139°42'813.7
2018-Jun-22 00:26N 35°26' E 139°43'510.1
2018-Jun-21 23:56N 35°31' E 139°45'1 0.0
2018-Jun-20 20:48N 35°31' E 139°44'0 0.0
2018-Jun-18 20:19N 35°31' E 139°44'0 0.0
2018-Jun-18 10:31N 35°31' E 139°44'0 0.0
2018-Jun-16 23:08N 35°31' E 139°44'0 0.0
2018-Jun-16 22:50N 35°31' E 139°44'0 0.0
2018-Jun-16 15:49N 35°31' E 139°44'0 0.0
2018-Jun-16 09:22N 35°31' E 139°44'0 0.0
2018-Jun-16 08:39N 35°31' E 139°44'0 0.0
2018-Jun-16 07:56N 35°31' E 139°44'0 0.0
2018-Jun-16 07:05N 35°31' E 139°44'0 0.0
2018-Jun-16 06:53N 35°31' E 139°44'0 0.0
2018-Jun-16 01:45N 35°31' E 139°44'1 1.9
2018-Jun-16 01:08N 35°30' E 139°44'1 5.4
2018-Jun-16 00:52N 35°29' E 139°43'1 2.9
2018-Jun-16 00:26N 35°28' E 139°42'612.9
2018-Jun-15 23:58N 35°22' E 139°42'5 0.3
2018-Jun-15 06:02N 35°17' E 139°41'1 6.0
2018-Jun-15 05:55N 35°18' E 139°42'1 0.1
2018-Jun-14 22:55N 35°18' E 139°42'  
Track history (hours):
 
Tides and Currents Weather Stations Pressure Air Temp Water Temp Dewpoint Dewpoint Depression Visibility Wind Speed Wind Dir Waves Ship Positions

Kiyotaki

Last reported at 2018-Jun-24 20:29 UTC. Time now 2018-Jun-24 20:36 UTC.
Position N 35°18' E 139°43'.

Length 36 m.

Type: Tug. MMSI: 431100981.

Date/timePositionNaut miles runAvg speedWind from/ knotsBaromVisibWave heightAir tempDewpointWater temp
2018-Jun-24 20:29N 35°18' E 139°43'0 0.0
2018-Jun-24 06:14N 35°18' E 139°43'0 0.3
2018-Jun-24 05:45N 35°18' E 139°43'1 0.2
2018-Jun-24 02:21N 35°18' E 139°42'2 0.1
2018-Jun-23 09:02N 35°17' E 139°41'113.3
2018-Jun-23 08:59N 35°17' E 139°41'1 2.4
2018-Jun-23 08:28N 35°18' E 139°43'0 0.1
2018-Jun-23 01:52N 35°18' E 139°43'2 1.2
2018-Jun-23 00:24N 35°17' E 139°41'2 0.8
2018-Jun-22 21:40N 35°18' E 139°43'1 1.7
2018-Jun-22 21:17N 35°18' E 139°43'0 0.5
2018-Jun-22 20:56N 35°18' E 139°43'1 0.0
2018-Jun-22 06:13N 35°17' E 139°43'0 0.1
2018-Jun-22 03:31N 35°18' E 139°43'0 0.3
2018-Jun-22 02:37N 35°18' E 139°43'1 0.6
2018-Jun-22 00:59N 35°18' E 139°42'813.7
2018-Jun-22 00:26N 35°26' E 139°43'510.1
2018-Jun-21 23:56N 35°31' E 139°45'1 0.0
2018-Jun-20 20:48N 35°31' E 139°44'0 0.0
2018-Jun-18 20:19N 35°31' E 139°44'0 0.0
2018-Jun-18 10:31N 35°31' E 139°44'0 0.0
2018-Jun-16 23:08N 35°31' E 139°44'0 0.0
2018-Jun-16 22:50N 35°31' E 139°44'0 0.0
2018-Jun-16 15:49N 35°31' E 139°44'0 0.0
2018-Jun-16 09:22N 35°31' E 139°44'0 0.0
2018-Jun-16 08:39N 35°31' E 139°44'0 0.0
2018-Jun-16 07:56N 35°31' E 139°44'0 0.0
2018-Jun-16 07:05N 35°31' E 139°44'0 0.0
2018-Jun-16 06:53N 35°31' E 139°44'0 0.0
2018-Jun-16 01:45N 35°31' E 139°44'1 1.9
2018-Jun-16 01:08N 35°30' E 139°44'1 5.4
2018-Jun-16 00:52N 35°29' E 139°43'1 2.9
2018-Jun-16 00:26N 35°28' E 139°42'612.9
2018-Jun-15 23:58N 35°22' E 139°42'5 0.3
2018-Jun-15 06:02N 35°17' E 139°41'1 6.0
2018-Jun-15 05:55N 35°18' E 139°42'1 0.1
2018-Jun-14 22:55N 35°18' E 139°42'  

Dump ship's entire track history